Time,TemperatureF,DewpointF,PressureIn,WindDirection,WindDirectionDegrees,WindSpeedMPH,WindSpeedGustMPH,Humidity,HourlyPrecipIn,Conditions,Clouds,dailyrainin,SoftwareType,DateUTC
2013-01-14 00:03:00,16.4,8.3,30.32,WNW,302,2.0,0.0,70,0.00,CLR,,0.00,WeatherDisplay:10.37,2013-01-14 06:03:00,
2013-01-14 00:08:00,16.2,8.1,30.32,WNW,302,0.0,0.0,70,0.00,CLR,,0.00,WeatherDisplay:10.37,2013-01-14 06:08:00,
2013-01-14 00:13:00,16.1,8.0,30.33,WNW,302,0.0,0.0,70,0.00,CLR,,0.00,WeatherDisplay:10.37,2013-01-14 06:13:00,
2013-01-14 00:19:00,16.0,8.3,30.33,WNW,302,0.0,0.0,71,0.00,CLR,,0.00,WeatherDisplay:10.37,2013-01-14 06:19:00,
2013-01-14 00:24:00,16.0,8.3,30.33,WNW,302,0.0,0.0,71,0.00,CLR,,0.00,WeatherDisplay:10.37,2013-01-14 06:24:00,
2013-01-14 00:29:00,15.9,8.2,30.33,WNW,302,0.0,0.0,71,0.00,CLR,,0.00,WeatherDisplay:10.37,2013-01-14 06:29:00,
2013-01-14 00:34:00,15.7,8.0,30.34,WNW,302,0.0,0.0,71,0.00,CLR,,0.00,WeatherDisplay:10.37,2013-01-14 06:34:00,
2013-01-14 00:39:00,15.4,7.7,30.34,WNW,302,0.0,0.0,71,0.00,CLR,,0.00,WeatherDisplay:10.37,2013-01-14 06:39:00,
2013-01-14 00:44:00,15.2,7.8,30.35,WNW,302,0.0,0.0,72,0.00,CLR,,0.00,WeatherDisplay:10.37,2013-01-14 06:44:00,
2013-01-14 00:56:00,15.1,7.7,30.35,WNW,302,0.0,0.0,72,0.00,CLR,,0.00,WeatherDisplay:10.37,2013-01-14 06:56:00,
2013-01-14 01:01:00,15.4,8.3,30.36,WNW,302,0.0,0.0,73,0.00,CLR,,0.00,WeatherDisplay:10.37,2013-01-14 07:01:00,
2013-01-14 01:06:00,15.6,8.5,30.36,WNW,302,0.0,0.0,73,0.00,CLR,,0.00,WeatherDisplay:10.37,2013-01-14 07:06:00,
2013-01-14 01:11:00,15.7,8.3,30.36,WNW,302,0.0,0.0,72,0.00,CLR,,0.00,WeatherDisplay:10.37,2013-01-14 07:11:00,
2013-01-14 01:16:00,15.6,8.2,30.36,WNW,302,0.0,0.0,72,0.00,CLR,,0.00,WeatherDisplay:10.37,2013-01-14 07:16:00,
2013-01-14 01:21:00,15.4,8.0,30.36,WNW,302,0.0,0.0,72,0.00,CLR,,0.00,WeatherDisplay:10.37,2013-01-14 07:21:00,
2013-01-14 01:26:00,15.2,7.8,30.37,WNW,302,0.0,0.0,72,0.00,CLR,,0.00,WeatherDisplay:10.37,2013-01-14 07:26:00,
2013-01-14 01:31:00,15.1,8.0,30.37,WNW,302,0.0,0.0,73,0.00,CLR,,0.00,WeatherDisplay:10.37,2013-01-14 07:31:00,
2013-01-14 01:36:00,15.0,7.9,30.38,WNW,302,0.0,0.0,73,0.00,CLR,,0.00,WeatherDisplay:10.37,2013-01-14 07:36:00,
2013-01-14 01:41:00,14.8,7.7,30.38,WNW,302,0.0,0.0,73,0.00,CLR,,0.00,WeatherDisplay:10.37,2013-01-14 07:41:00,
2013-01-14 01:47:00,14.6,7.8,30.38,WNW,302,0.0,0.0,74,0.00,CLR,,0.00,WeatherDisplay:10.37,2013-01-14 07:47:00,
2013-01-14 01:52:00,14.4,7.6,30.38,WNW,302,0.0,0.0,74,0.00,CLR,,0.00,WeatherDisplay:10.37,2013-01-14 07:52:00,
2013-01-14 01:57:00,14.2,7.7,30.39,WNW,302,0.0,0.0,75,0.00,CLR,,0.00,WeatherDisplay:10.37,2013-01-14 07:57:00,
2013-01-14 02:02:00,13.9,7.4,30.39,WNW,302,0.0,0.0,75,0.00,CLR,,0.00,WeatherDisplay:10.37,2013-01-14 08:02:00,
2013-01-14 02:07:00,13.7,7.5,30.39,WNW,302,0.0,0.0,76,0.00,CLR,,0.00,WeatherDisplay:10.37,2013-01-14 08:07:00,
2013-01-14 02:12:00,13.6,7.4,30.39,WNW,302,0.0,0.0,76,0.00,CLR,,0.00,WeatherDisplay:10.37,2013-01-14 08:12:00,
2013-01-14 02:17:00,13.5,7.3,30.39,WNW,302,0.0,0.0,76,0.00,CLR,,0.00,WeatherDisplay:10.37,2013-01-14 08:17:00,
2013-01-14 02:22:00,13.6,7.7,30.40,WNW,302,1.2,0.0,77,0.00,CLR,,0.00,WeatherDisplay:10.37,2013-01-14 08:22:00,
2013-01-14 02:27:00,13.8,8.2,30.40,WNW,302,0.0,0.0,78,0.00,CLR,,0.00,WeatherDisplay:10.37,2013-01-14 08:27:00,
2013-01-14 02:32:00,13.8,8.2,30.40,WNW,302,1.2,0.0,78,0.00,CLR,,0.00,WeatherDisplay:10.37,2013-01-14 08:32:00,
2013-01-14 02:37:00,13.7,8.1,30.40,WNW,302,0.0,0.0,78,0.00,CLR,,0.00,WeatherDisplay:10.37,2013-01-14 08:37:00,
2013-01-14 02:42:00,13.7,8.1,30.40,WNW,302,1.2,1.2,78,0.00,CLR,,0.00,WeatherDisplay:10.37,2013-01-14 08:42:00,
2013-01-14 02:47:00,13.9,8.6,30.41,WNW,302,2.3,2.3,79,0.00,CLR,,0.00,WeatherDisplay:10.37,2013-01-14 08:47:00,
2013-01-14 02:52:00,14.3,8.7,30.41,WNW,302,1.2,1.2,78,0.00,CLR,,0.00,WeatherDisplay:10.37,2013-01-14 08:52:00,
2013-01-14 02:57:00,14.4,8.8,30.40,WNW,302,0.0,0.0,78,0.00,CLR,,0.00,WeatherDisplay:10.37,2013-01-14 08:57:00,
2013-01-14 03:02:00,14.3,8.4,30.40,WNW,302,0.0,0.0,77,0.00,CLR,,0.00,WeatherDisplay:10.37,2013-01-14 09:02:00,
2013-01-14 03:07:00,14.2,8.3,30.40,WNW,302,0.0,0.0,77,0.00,CLR,,0.00,WeatherDisplay:10.37,2013-01-14 09:07:00,
2013-01-14 03:12:00,13.9,8.0,30.40,WNW,302,0.0,0.0,77,0.00,CLR,,0.00,WeatherDisplay:10.37,2013-01-14 09:12:00,
2013-01-14 03:17:00,13.7,7.8,30.40,WNW,302,0.0,0.0,77,0.00,CLR,,0.00,WeatherDisplay:10.37,2013-01-14 09:17:00,
2013-01-14 03:22:00,13.4,7.8,30.40,WNW,302,0.0,0.0,78,0.00,CLR,,0.00,WeatherDisplay:10.37,2013-01-14 09:22:00,
2013-01-14 03:27:00,13.1,7.5,30.40,WNW,302,0.0,0.0,78,0.00,CLR,,0.00,WeatherDisplay:10.37,2013-01-14 09:27:00,
2013-01-14 03:32:00,12.8,7.2,30.40,WNW,302,0.0,0.0,78,0.00,CLR,,0.00,WeatherDisplay:10.37,2013-01-14 09:32:00,
2013-01-14 03:37:00,12.6,7.3,30.39,WNW,302,0.0,0.0,79,0.00,CLR,,0.00,WeatherDisplay:10.37,2013-01-14 09:37:00,
2013-01-14 03:42:00,12.4,7.4,30.39,WNW,302,0.0,0.0,80,0.00,CLR,,0.00,WeatherDisplay:10.37,2013-01-14 09:42:00,
2013-01-14 03:47:00,12.3,7.3,30.39,WNW,302,0.0,0.0,80,0.00,CLR,,0.00,WeatherDisplay:10.37,2013-01-14 09:47:00,
2013-01-14 03:52:00,12.3,7.6,30.39,WNW,302,0.0,0.0,81,0.00,CLR,,0.00,WeatherDisplay:10.37,2013-01-14 09:52:00,
2013-01-14 03:57:00,12.5,7.5,30.39,WNW,302,0.0,0.0,80,0.00,CLR,,0.00,WeatherDisplay:10.37,2013-01-14 09:57:00,
2013-01-14 04:02:00,12.5,7.8,30.39,WNW,302,0.0,0.0,81,0.00,CLR,,0.00,WeatherDisplay:10.37,2013-01-14 10:02:00,
2013-01-14 04:07:00,12.4,7.4,30.39,WNW,302,0.0,0.0,80,0.00,CLR,,0.00,WeatherDisplay:10.37,2013-01-14 10:07:00,
2013-01-14 04:12:00,12.2,7.5,30.39,WNW,302,0.0,0.0,81,0.00,CLR,,0.00,WeatherDisplay:10.37,2013-01-14 10:12:00,
2013-01-14 04:17:00,12.0,7.3,30.38,WNW,302,0.0,0.0,81,0.00,CLR,,0.00,WeatherDisplay:10.37,2013-01-14 10:17:00,
2013-01-14 04:22:00,12.1,7.4,30.38,WNW,302,0.0,0.0,81,0.00,CLR,,0.00,WeatherDisplay:10.37,2013-01-14 10:22:00,
2013-01-14 04:27:00,12.3,7.9,30.38,WNW,302,0.0,0.0,82,0.00,CLR,,0.00,WeatherDisplay:10.37,2013-01-14 10:27:00,
2013-01-14 04:32:00,12.5,8.0,30.38,WNW,302,0.0,0.0,82,0.00,CLR,,0.00,WeatherDisplay:10.37,2013-01-14 10:32:00,
2013-01-14 04:37:00,12.5,8.0,30.39,WNW,302,0.0,0.0,82,0.00,CLR,,0.00,WeatherDisplay:10.37,2013-01-14 10:37:00,
2013-01-14 04:42:00,12.3,7.9,30.39,WNW,302,0.0,0.0,82,0.00,CLR,,0.00,WeatherDisplay:10.37,2013-01-14 10:42:00,
2013-01-14 04:47:00,12.3,7.9,30.39,WNW,302,0.0,0.0,82,0.00,CLR,,0.00,WeatherDisplay:10.37,2013-01-14 10:47:00,
2013-01-14 04:52:00,12.3,7.9,30.39,WNW,302,0.0,0.0,82,0.00,CLR,,0.00,WeatherDisplay:10.37,2013-01-14 10:52:00,
2013-01-14 04:57:00,12.2,7.8,30.39,WNW,302,0.0,0.0,82,0.00,CLR,,0.00,WeatherDisplay:10.37,2013-01-14 10:57:00,
2013-01-14 05:02:00,12.2,7.8,30.39,WNW,302,0.0,0.0,82,0.00,CLR,,0.00,WeatherDisplay:10.37,2013-01-14 11:02:00,
2013-01-14 05:07:00,12.2,7.8,30.39,WNW,302,0.0,0.0,82,0.00,CLR,,0.00,WeatherDisplay:10.37,2013-01-14 11:07:00,
2013-01-14 05:12:00,12.2,7.8,30.39,WNW,302,0.0,0.0,82,0.00,CLR,,0.00,WeatherDisplay:10.37,2013-01-14 11:12:00,
2013-01-14 05:17:00,12.1,7.7,30.39,WNW,302,0.0,0.0,82,0.00,CLR,,0.00,WeatherDisplay:10.37,2013-01-14 11:17:00,
2013-01-14 05:22:00,11.9,7.5,30.39,WNW,302,0.0,0.0,82,0.00,CLR,,0.00,WeatherDisplay:10.37,2013-01-14 11:22:00,
2013-01-14 05:27:00,11.8,7.4,30.39,WNW,302,0.0,0.0,82,0.00,CLR,,0.00,WeatherDisplay:10.37,2013-01-14 11:27:00,
2013-01-14 05:32:00,11.8,7.4,30.39,WNW,302,0.0,0.0,82,0.00,CLR,,0.00,WeatherDisplay:10.37,2013-01-14 11:32:00,
2013-01-14 05:37:00,11.8,7.4,30.40,WNW,302,0.0,0.0,82,0.00,CLR,,0.00,WeatherDisplay:10.37,2013-01-14 11:37:00,
2013-01-14 05:42:00,11.7,7.3,30.40,WNW,302,0.0,0.0,82,0.00,CLR,,0.00,WeatherDisplay:10.37,2013-01-14 11:42:00,
2013-01-14 05:47:00,11.6,7.2,30.40,WNW,302,0.0,0.0,82,0.00,CLR,,0.00,WeatherDisplay:10.37,2013-01-14 11:47:00,
2013-01-14 05:52:00,11.4,7.0,30.40,WNW,302,0.0,0.0,82,0.00,CLR,,0.00,WeatherDisplay:10.37,2013-01-14 11:52:00,
2013-01-14 05:57:00,11.4,7.2,30.40,WNW,302,0.0,0.0,83,0.00,CLR,,0.00,WeatherDisplay:10.37,2013-01-14 11:57:00,
2013-01-14 06:02:00,11.4,7.2,30.41,WNW,302,0.0,0.0,83,0.00,CLR,,0.00,WeatherDisplay:10.37,2013-01-14 12:02:00,
2013-01-14 06:07:00,11.6,7.4,30.40,WNW,302,0.0,0.0,83,0.00,CLR,,0.00,WeatherDisplay:10.37,2013-01-14 12:07:00,
2013-01-14 06:12:00,11.7,7.5,30.40,WNW,302,0.0,0.0,83,0.00,CLR,,0.00,WeatherDisplay:10.37,2013-01-14 12:12:00,
2013-01-14 06:17:00,11.6,7.4,30.40,WNW,302,0.0,0.0,83,0.00,CLR,,0.00,WeatherDisplay:10.37,2013-01-14 12:17:00,
2013-01-14 06:22:00,11.7,7.5,30.39,WNW,302,0.0,0.0,83,0.00,CLR,,0.00,WeatherDisplay:10.37,2013-01-14 12:22:00,
2013-01-14 06:27:00,11.7,7.5,30.39,WNW,302,0.0,0.0,83,0.00,CLR,,0.00,WeatherDisplay:10.37,2013-01-14 12:27:00,
2013-01-14 06:32:00,11.8,7.6,30.40,WNW,302,0.0,0.0,83,0.00,CLR,,0.00,WeatherDisplay:10.37,2013-01-14 12:32:00,
2013-01-14 06:37:00,11.7,7.5,30.40,WNW,302,0.0,0.0,83,0.00,CLR,,0.00,WeatherDisplay:10.37,2013-01-14 12:37:00,
2013-01-14 06:42:00,11.6,7.7,30.40,WNW,302,0.0,0.0,84,0.00,CLR,,0.00,WeatherDisplay:10.37,2013-01-14 12:42:00,
2013-01-14 06:47:00,11.5,7.6,30.41,WNW,302,0.0,0.0,84,0.00,CLR,,0.00,WeatherDisplay:10.37,2013-01-14 12:47:00,
2013-01-14 06:52:00,11.4,7.5,30.41,WNW,302,0.0,0.0,84,0.00,CLR,,0.00,WeatherDisplay:10.37,2013-01-14 12:52:00,
2013-01-14 06:57:00,11.3,7.4,30.42,WNW,302,0.0,0.0,84,0.00,CLR,,0.00,WeatherDisplay:10.37,2013-01-14 12:57:00,
2013-01-14 07:02:00,11.3,7.4,30.42,WNW,302,0.0,0.0,84,0.00,CLR,,0.00,WeatherDisplay:10.37,2013-01-14 13:02:00,
2013-01-14 07:07:00,11.2,7.3,30.42,WNW,302,0.0,0.0,84,0.00,CLR,,0.00,WeatherDisplay:10.37,2013-01-14 13:07:00,
2013-01-14 07:12:00,11.2,7.6,30.42,WNW,302,0.0,0.0,85,0.00,CLR,,0.00,WeatherDisplay:10.37,2013-01-14 13:12:00,
2013-01-14 07:17:00,11.1,7.5,30.42,WNW,302,0.0,0.0,85,0.00,CLR,,0.00,WeatherDisplay:10.37,2013-01-14 13:17:00,
2013-01-14 07:22:00,11.2,7.6,30.43,WNW,302,0.0,0.0,85,0.00,CLR,,0.00,WeatherDisplay:10.37,2013-01-14 13:22:00,
2013-01-14 07:27:00,11.2,7.6,30.43,WNW,302,0.0,0.0,85,0.00,CLR,,0.00,WeatherDisplay:10.37,2013-01-14 13:27:00,
2013-01-14 07:32:00,11.0,7.4,30.44,WNW,302,0.0,0.0,85,0.00,CLR,,0.00,WeatherDisplay:10.37,2013-01-14 13:32:00,
2013-01-14 07:37:00,10.9,7.3,30.44,WNW,302,0.0,0.0,85,0.00,CLR,,0.00,WeatherDisplay:10.37,2013-01-14 13:37:00,
2013-01-14 07:42:00,10.9,7.3,30.44,WNW,302,0.0,0.0,85,0.00,CLR,,0.00,WeatherDisplay:10.37,2013-01-14 13:42:00,
2013-01-14 07:47:00,10.9,7.3,30.44,WNW,302,0.0,0.0,85,0.00,CLR,,0.00,WeatherDisplay:10.37,2013-01-14 13:47:00,
2013-01-14 07:52:00,11.0,7.4,30.44,WNW,302,0.0,0.0,85,0.00,CLR,,0.00,WeatherDisplay:10.37,2013-01-14 13:52:00,
2013-01-14 07:57:00,11.0,7.4,30.44,WNW,302,0.0,0.0,85,0.00,CLR,,0.00,WeatherDisplay:10.37,2013-01-14 13:57:00,
2013-01-14 08:02:00,10.9,7.3,30.44,WNW,302,0.0,0.0,85,0.00,CLR,,0.00,WeatherDisplay:10.37,2013-01-14 14:02:00,
2013-01-14 08:07:00,11.0,7.4,30.44,WNW,302,0.0,0.0,85,0.00,CLR,,0.00,WeatherDisplay:10.37,2013-01-14 14:07:00,
2013-01-14 08:12:00,11.0,7.6,30.44,WNW,302,0.0,0.0,86,0.00,CLR,,0.00,WeatherDisplay:10.37,2013-01-14 14:12:00,
2013-01-14 08:17:00,11.3,7.9,30.45,WNW,302,0.0,0.0,86,0.00,CLR,,0.00,WeatherDisplay:10.37,2013-01-14 14:17:00,
2013-01-14 08:22:00,11.6,8.2,30.45,WNW,302,0.0,0.0,86,0.00,CLR,,0.00,WeatherDisplay:10.37,2013-01-14 14:22:00,
2013-01-14 08:27:00,11.8,8.4,30.46,WNW,302,0.0,0.0,86,0.00,CLR,,0.00,WeatherDisplay:10.37,2013-01-14 14:27:00,
2013-01-14 08:32:00,12.0,8.6,30.46,WNW,302,0.0,0.0,86,0.00,CLR,,0.00,WeatherDisplay:10.37,2013-01-14 14:32:00,
2013-01-14 08:37:00,12.3,8.9,30.46,WNW,302,0.0,0.0,86,0.00,CLR,,0.00,WeatherDisplay:10.37,2013-01-14 14:37:00,
2013-01-14 08:43:00,13.1,9.7,30.46,WNW,302,0.0,0.1,86,0.00,CLR,,0.00,WeatherDisplay:10.37,2013-01-14 14:43:00,
2013-01-14 08:48:00,14.2,11.0,30.47,WNW,302,2.0,2.0,87,0.00,CLR,,0.00,WeatherDisplay:10.37,2013-01-14 14:48:00,
2013-01-14 08:53:00,15.1,11.7,30.47,WNW,302,1.2,0.0,86,0.00,CLR,,0.00,WeatherDisplay:10.37,2013-01-14 14:53:00,
2013-01-14 08:58:00,16.2,12.7,30.47,WNW,302,3.5,0.0,86,0.00,CLR,,0.00,WeatherDisplay:10.37,2013-01-14 14:58:00,
2013-01-14 09:03:00,16.9,12.9,30.47,WNW,302,2.3,2.3,84,0.00,CLR,,0.00,WeatherDisplay:10.37,2013-01-14 15:03:00,
2013-01-14 09:08:00,17.5,13.2,30.47,WNW,302,0.0,0.0,83,0.00,CLR,,0.00,WeatherDisplay:10.37,2013-01-14 15:08:00,
2013-01-14 09:13:00,18.3,13.4,30.47,WNW,302,4.0,4.0,81,0.00,CLR,,0.00,WeatherDisplay:10.37,2013-01-14 15:13:00,
2013-01-14 09:18:00,18.9,13.5,30.47,WNW,302,1.2,1.2,79,0.00,CLR,,0.00,WeatherDisplay:10.37,2013-01-14 15:18:00,
2013-01-14 09:23:00,19.7,14.0,30.47,WNW,302,1.2,0.0,78,0.00,CLR,,0.00,WeatherDisplay:10.37,2013-01-14 15:23:00,
2013-01-14 09:28:00,20.6,14.2,30.47,WNW,302,2.3,2.3,76,0.00,CLR,,0.00,WeatherDisplay:10.37,2013-01-14 15:28:00,
2013-01-14 09:33:00,21.1,13.8,30.47,WNW,302,3.5,3.5,73,0.00,CLR,,0.00,WeatherDisplay:10.37,2013-01-14 15:33:00,
2013-01-14 09:38:00,21.2,12.9,30.47,WNW,302,3.5,3.5,70,0.00,CLR,,0.00,WeatherDisplay:10.37,2013-01-14 15:38:00,
2013-01-14 09:43:00,21.4,12.8,30.47,WNW,302,2.3,0.0,69,0.00,CLR,,0.00,WeatherDisplay:10.37,2013-01-14 15:43:00,
2013-01-14 09:48:00,21.5,12.6,30.48,WNW,302,2.3,0.0,68,0.00,CLR,,0.00,WeatherDisplay:10.37,2013-01-14 15:48:00,
2013-01-14 09:53:00,21.5,12.6,30.48,WNW,302,1.2,0.0,68,0.00,CLR,,0.00,WeatherDisplay:10.37,2013-01-14 15:53:00,
2013-01-14 09:58:00,21.7,12.8,30.47,WNW,302,0.0,0.0,68,0.00,CLR,,0.00,WeatherDisplay:10.37,2013-01-14 15:58:00,
2013-01-14 10:03:00,21.7,12.8,30.47,WNW,302,1.2,1.2,68,0.00,CLR,,0.00,WeatherDisplay:10.37,2013-01-14 16:03:00,
2013-01-14 10:08:00,22.0,13.0,30.47,WNW,302,2.3,0.0,68,0.00,CLR,,0.00,WeatherDisplay:10.37,2013-01-14 16:08:00,
2013-01-14 10:13:00,22.5,13.5,30.47,WNW,302,3.5,3.5,68,0.00,CLR,,0.00,WeatherDisplay:10.37,2013-01-14 16:13:00,
2013-01-14 10:18:00,23.0,13.7,30.47,WNW,302,1.2,0.0,67,0.00,CLR,,0.00,WeatherDisplay:10.37,2013-01-14 16:18:00,
2013-01-14 10:23:00,23.6,13.5,30.46,WNW,302,1.2,1.2,65,0.00,CLR,,0.00,WeatherDisplay:10.37,2013-01-14 16:23:00,
2013-01-14 10:28:00,23.4,12.3,30.46,WNW,303,4.6,4.6,62,0.00,CLR,,0.00,WeatherDisplay:10.37,2013-01-14 16:28:00,
2013-01-14 10:33:00,23.4,12.3,30.46,WNW,302,3.5,3.5,62,0.00,CLR,,0.00,WeatherDisplay:10.37,2013-01-14 16:33:00,
2013-01-14 10:38:00,23.9,12.8,30.45,WNW,302,1.2,0.0,62,0.00,CLR,,0.00,WeatherDisplay:10.37,2013-01-14 16:38:00,
2013-01-14 10:43:00,24.5,13.3,30.45,WNW,302,1.2,1.2,62,0.00,CLR,,0.00,WeatherDisplay:10.37,2013-01-14 16:43:00,
2013-01-14 10:48:00,25.1,13.5,30.45,WNW,302,2.3,2.3,61,0.00,CLR,,0.00,WeatherDisplay:10.37,2013-01-14 16:48:00,
2013-01-14 10:53:00,24.8,12.1,30.45,WNW,303,3.5,3.5,58,0.00,CLR,,0.00,WeatherDisplay:10.37,2013-01-14 16:53:00,
2013-01-14 10:58:00,24.2,11.1,30.44,WNW,303,3.5,3.5,57,0.00,CLR,,0.00,WeatherDisplay:10.37,2013-01-14 16:58:00,
2013-01-14 11:03:00,24.4,11.3,30.44,WNW,303,3.5,3.5,57,0.00,CLR,,0.00,WeatherDisplay:10.37,2013-01-14 17:03:00,
2013-01-14 11:08:00,24.6,11.5,30.43,WNW,303,2.3,2.3,57,0.00,CLR,,0.00,WeatherDisplay:10.37,2013-01-14 17:08:00,
2013-01-14 11:13:00,24.5,11.0,30.43,NW,305,4.6,4.6,56,0.00,CLR,,0.00,WeatherDisplay:10.37,2013-01-14 17:13:00,
2013-01-14 11:18:00,24.7,12.0,30.42,NW,305,3.5,3.5,58,0.00,CLR,,0.00,WeatherDisplay:10.37,2013-01-14 17:18:00,
2013-01-14 11:23:00,24.8,12.1,30.42,NW,304,2.3,2.3,58,0.00,CLR,,0.00,WeatherDisplay:10.37,2013-01-14 17:23:00,
2013-01-14 11:28:00,25.2,13.2,30.41,NW,304,5.8,5.8,60,0.00,CLR,,0.00,WeatherDisplay:10.37,2013-01-14 17:28:00,
2013-01-14 11:33:00,25.5,12.0,30.41,NW,307,3.5,3.5,56,0.00,CLR,,0.00,WeatherDisplay:10.37,2013-01-14 17:33:00,
2013-01-14 11:38:00,25.4,12.3,30.41,NW,309,2.3,2.3,57,0.00,CLR,,0.00,WeatherDisplay:10.37,2013-01-14 17:38:00,
2013-01-14 11:43:00,25.6,11.7,30.41,NW,309,2.0,2.0,55,0.00,CLR,,0.00,WeatherDisplay:10.37,2013-01-14 17:43:00,
2013-01-14 11:48:00,25.7,11.3,30.40,NW,309,5.8,5.8,54,0.00,CLR,,0.00,WeatherDisplay:10.37,2013-01-14 17:48:00,
2013-01-14 11:53:00,25.9,11.5,30.40,NW,309,0.0,0.0,54,0.00,CLR,,0.00,WeatherDisplay:10.37,2013-01-14 17:53:00,
2013-01-14 11:58:00,26.9,11.6,30.40,NW,309,3.5,3.5,52,0.00,CLR,,0.00,WeatherDisplay:10.37,2013-01-14 17:58:00,
2013-01-14 12:03:00,26.9,10.7,30.39,NW,311,4.6,4.6,50,0.00,CLR,,0.00,WeatherDisplay:10.37,2013-01-14 18:03:00,
2013-01-14 12:08:00,26.7,10.1,30.39,NW,313,4.6,4.6,49,0.00,CLR,,0.00,WeatherDisplay:10.37,2013-01-14 18:08:00,
2013-01-14 12:13:00,27.2,11.0,30.39,NW,313,3.5,3.5,50,0.00,CLR,,0.00,WeatherDisplay:10.37,2013-01-14 18:13:00,
2013-01-14 12:18:00,27.4,10.7,30.38,NW,316,6.9,6.9,49,0.00,CLR,,0.00,WeatherDisplay:10.37,2013-01-14 18:18:00,
2013-01-14 12:23:00,27.1,10.4,30.38,NW,316,3.5,3.5,49,0.00,CLR,,0.00,WeatherDisplay:10.37,2013-01-14 18:23:00,
2013-01-14 12:28:00,27.2,10.5,30.38,NW,317,3.5,3.5,49,0.00,CLR,,0.00,WeatherDisplay:10.37,2013-01-14 18:28:00,
2013-01-14 12:33:00,27.4,11.6,30.38,NW,317,3.5,3.5,51,0.00,CLR,,0.00,WeatherDisplay:10.37,2013-01-14 18:33:00,
2013-01-14 12:38:00,27.5,11.3,30.38,NW,317,3.5,3.5,50,0.00,CLR,,0.00,WeatherDisplay:10.37,2013-01-14 18:38:00,
2013-01-14 12:43:00,27.5,11.3,30.38,NW,317,4.6,4.6,50,0.00,CLR,,0.00,WeatherDisplay:10.37,2013-01-14 18:43:00,
2013-01-14 12:48:00,27.5,10.8,30.38,NW,317,3.5,3.5,49,0.00,CLR,,0.00,WeatherDisplay:10.37,2013-01-14 18:48:00,
2013-01-14 12:53:00,27.5,11.3,30.37,NW,318,3.5,3.5,50,0.00,CLR,,0.00,WeatherDisplay:10.37,2013-01-14 18:53:00,
2013-01-14 12:58:00,27.5,10.4,30.37,NW,318,5.8,5.8,48,0.00,CLR,,0.00,WeatherDisplay:10.37,2013-01-14 18:58:00,
2013-01-14 13:03:00,27.2,10.1,30.37,NW,319,0.0,0.1,48,0.00,CLR,,0.00,WeatherDisplay:10.37,2013-01-14 19:03:00,
2013-01-14 13:08:00,27.9,11.2,30.36,NW,319,2.0,2.0,49,0.00,CLR,,0.00,WeatherDisplay:10.37,2013-01-14 19:08:00,
2013-01-14 13:13:00,28.5,10.3,30.36,NW,321,3.5,3.5,46,0.00,CLR,,0.00,WeatherDisplay:10.37,2013-01-14 19:13:00,
2013-01-14 13:18:00,28.4,10.2,30.37,NW,321,3.5,3.5,46,0.00,CLR,,0.00,WeatherDisplay:10.37,2013-01-14 19:18:00,
2013-01-14 13:23:00,28.5,8.8,30.36,NW,326,5.8,5.8,43,0.00,CLR,,0.00,WeatherDisplay:10.37,2013-01-14 19:23:00,
2013-01-14 13:28:00,28.1,9.0,30.37,NNW,329,3.5,3.5,44,0.00,CLR,,0.00,WeatherDisplay:10.37,2013-01-14 19:28:00,
2013-01-14 13:33:00,28.5,9.3,30.36,NNW,329,5.0,5.0,44,0.00,CLR,,0.00,WeatherDisplay:10.37,2013-01-14 19:33:00,
2013-01-14 13:38:00,28.4,8.7,30.36,NNW,329,3.5,3.5,43,0.00,CLR,,0.00,WeatherDisplay:10.37,2013-01-14 19:38:00,
2013-01-14 13:43:00,28.2,8.5,30.36,NNW,340,3.5,3.5,43,0.00,CLR,,0.00,WeatherDisplay:10.37,2013-01-14 19:43:00,
2013-01-14 13:48:00,28.4,8.7,30.36,NNW,340,3.5,3.5,43,0.00,CLR,,0.00,WeatherDisplay:10.37,2013-01-14 19:48:00,
2013-01-14 13:53:00,28.9,9.2,30.35,NNW,340,5.8,5.8,43,0.00,CLR,,0.00,WeatherDisplay:10.37,2013-01-14 19:53:00,
2013-01-14 13:58:00,29.1,9.9,30.35,NNW,340,3.5,3.5,44,0.00,CLR,,0.00,WeatherDisplay:10.37,2013-01-14 19:58:00,
2013-01-14 14:03:00,29.0,9.8,30.35,NNW,340,3.5,3.5,44,0.00,CLR,,0.00,WeatherDisplay:10.37,2013-01-14 20:03:00,
2013-01-14 14:08:00,29.2,10.5,30.35,NNW,340,4.0,4.0,45,0.00,CLR,,0.00,WeatherDisplay:10.37,2013-01-14 20:08:00,
2013-01-14 14:13:00,29.6,10.8,30.35,NNW,340,2.3,2.3,45,0.00,CLR,,0.00,WeatherDisplay:10.37,2013-01-14 20:13:00,
2013-01-14 14:15:00,16.3,9.8,30.31,SE,134,0.0,0.0,75,0.00,CLR,,0.00,WeatherDisplay:10.37,2013-01-14 20:15:00,
2013-01-14 14:18:00,30.1,11.3,30.35,NNW,340,3.0,3.0,45,0.00,CLR,,0.00,WeatherDisplay:10.37,2013-01-14 20:18:00,
2013-01-14 14:20:00,16.1,9.9,30.31,SE,135,0.0,0.0,76,0.00,CLR,,0.00,WeatherDisplay:10.37,2013-01-14 20:20:00,
2013-01-14 14:23:00,30.0,10.7,30.35,NNW,340,2.3,2.3,44,0.00,CLR,,0.00,WeatherDisplay:10.37,2013-01-14 20:23:00,
2013-01-14 14:25:00,15.9,10.0,30.31,SE,135,0.0,0.0,77,0.00,CLR,,0.00,WeatherDisplay:10.37,2013-01-14 20:25:00,
2013-01-14 14:28:00,29.8,11.0,30.35,NNW,340,1.2,1.2,45,0.00,CLR,,0.00,WeatherDisplay:10.37,2013-01-14 20:28:00,
2013-01-14 14:30:00,15.8,9.9,30.32,SE,135,0.0,0.0,77,0.00,CLR,,0.00,WeatherDisplay:10.37,2013-01-14 20:30:00,
2013-01-14 14:33:00,30.2,10.9,30.35,NNW,340,2.0,2.0,44,0.00,CLR,,0.00,WeatherDisplay:10.37,2013-01-14 20:33:00,
2013-01-14 14:35:00,15.6,10.0,30.31,SE,135,0.0,0.0,78,0.00,CLR,,0.00,WeatherDisplay:10.37,2013-01-14 20:35:00,
2013-01-14 14:38:00,30.2,10.4,30.35,NNW,340,2.3,2.3,43,0.00,CLR,,0.00,WeatherDisplay:10.37,2013-01-14 20:38:00,
2013-01-14 14:40:00,15.4,9.8,30.32,SE,135,0.0,0.0,78,0.00,CLR,,0.00,WeatherDisplay:10.37,2013-01-14 20:40:00,
2013-01-14 14:43:00,30.4,10.5,30.35,NNW,340,2.0,2.0,43,0.00,CLR,,0.00,WeatherDisplay:10.37,2013-01-14 20:43:00,
2013-01-14 14:45:00,15.3,9.7,30.31,SE,135,0.0,0.0,78,0.00,CLR,,0.00,WeatherDisplay:10.37,2013-01-14 20:45:00,
2013-01-14 14:48:00,30.3,9.9,30.35,NNW,340,3.5,3.5,42,0.00,CLR,,0.00,WeatherDisplay:10.37,2013-01-14 20:48:00,
2013-01-14 14:50:00,15.4,10.1,30.32,SE,135,0.0,0.0,79,0.00,CLR,,0.00,WeatherDisplay:10.37,2013-01-14 20:50:00,
2013-01-14 14:53:00,30.3,9.9,30.35,NNW,340,3.5,3.5,42,0.00,CLR,,0.00,WeatherDisplay:10.37,2013-01-14 20:53:00,
2013-01-14 14:55:00,15.5,10.1,30.32,SE,135,0.0,0.0,79,0.00,CLR,,0.00,WeatherDisplay:10.37,2013-01-14 20:55:00,
2013-01-14 14:58:00,30.1,10.3,30.35,NNW,340,3.5,3.5,43,0.00,CLR,,0.00,WeatherDisplay:10.37,2013-01-14 20:58:00,
2013-01-14 15:00:00,15.5,10.4,30.32,SE,135,0.0,0.0,80,0.00,CLR,,0.00,WeatherDisplay:10.37,2013-01-14 21:00:00,
2013-01-14 15:03:00,29.9,10.1,30.35,NNW,342,5.0,5.0,43,0.00,CLR,,0.00,WeatherDisplay:10.37,2013-01-14 21:03:00,
2013-01-14 15:05:00,15.5,10.4,30.32,SE,135,0.0,0.0,80,0.00,CLR,,0.00,WeatherDisplay:10.37,2013-01-14 21:05:00,
2013-01-14 15:08:00,29.6,9.8,30.36,NNW,344,2.3,2.3,43,0.00,CLR,,0.00,WeatherDisplay:10.37,2013-01-14 21:08:00,
2013-01-14 15:10:00,15.4,10.3,30.33,SE,135,0.0,0.0,80,0.00,CLR,,0.00,WeatherDisplay:10.37,2013-01-14 21:10:00,
2013-01-14 15:13:00,30.0,10.2,30.36,NNW,344,4.6,4.6,43,0.00,CLR,,0.00,WeatherDisplay:10.37,2013-01-14 21:13:00,
2013-01-14 15:15:00,15.4,10.6,30.33,SE,135,0.0,0.0,81,0.00,CLR,,0.00,WeatherDisplay:10.37,2013-01-14 21:15:00,
2013-01-14 15:18:00,30.1,9.7,30.36,NNW,344,0.0,0.0,42,0.00,CLR,,0.00,WeatherDisplay:10.37,2013-01-14 21:18:00,
2013-01-14 15:20:00,15.4,10.6,30.33,SE,135,0.0,0.0,81,0.00,CLR,,0.00,WeatherDisplay:10.37,2013-01-14 21:20:00,
2013-01-14 15:23:00,30.4,10.0,30.36,NNW,344,3.5,3.5,42,0.00,CLR,,0.00,WeatherDisplay:10.37,2013-01-14 21:23:00,
2013-01-14 15:25:00,15.4,10.6,30.32,SE,135,0.0,0.0,81,0.00,CLR,,0.00,WeatherDisplay:10.37,2013-01-14 21:25:00,
2013-01-14 15:28:00,30.7,10.3,30.36,NNW,344,1.2,1.2,42,0.00,CLR,,0.00,WeatherDisplay:10.37,2013-01-14 21:28:00,
2013-01-14 15:30:00,15.3,10.5,30.32,SE,135,0.0,0.0,81,0.00,CLR,,0.00,WeatherDisplay:10.37,2013-01-14 21:30:00,
2013-01-14 15:33:00,30.5,10.1,30.35,NNW,344,2.3,2.3,42,0.00,CLR,,0.00,WeatherDisplay:10.37,2013-01-14 21:33:00,
2013-01-14 15:35:00,15.3,10.8,30.32,SE,135,0.0,0.0,82,0.00,CLR,,0.00,WeatherDisplay:10.37,2013-01-14 21:35:00,
2013-01-14 15:38:00,30.5,10.1,30.36,NNW,344,2.3,2.3,42,0.00,CLR,,0.00,WeatherDisplay:10.37,2013-01-14 21:38:00,
2013-01-14 15:40:00,15.2,10.7,30.32,SE,135,0.0,0.0,82,0.00,CLR,,0.00,WeatherDisplay:10.37,2013-01-14 21:40:00,
2013-01-14 15:43:00,30.1,9.2,30.36,NNW,344,3.5,3.5,41,0.00,CLR,,0.00,WeatherDisplay:10.37,2013-01-14 21:43:00,
2013-01-14 15:45:00,15.1,10.6,30.32,SE,135,0.0,0.0,82,0.00,CLR,,0.00,WeatherDisplay:10.37,2013-01-14 21:45:00,
2013-01-14 15:48:00,29.8,9.5,30.36,NNW,344,2.3,2.3,42,0.00,CLR,,0.00,WeatherDisplay:10.37,2013-01-14 21:48:00,
2013-01-14 15:50:00,15.1,10.6,30.33,SE,135,0.0,0.0,82,0.00,CLR,,0.00,WeatherDisplay:10.37,2013-01-14 21:50:00,
2013-01-14 15:53:00,29.9,9.6,30.36,NNW,344,0.0,0.0,42,0.00,CLR,,0.00,WeatherDisplay:10.37,2013-01-14 21:53:00,
2013-01-14 15:55:00,15.3,11.1,30.33,SE,135,0.0,0.0,83,0.00,CLR,,0.00,WeatherDisplay:10.37,2013-01-14 21:55:00,
2013-01-14 15:58:00,30.1,9.2,30.35,NNW,344,2.3,2.3,41,0.00,CLR,,0.00,WeatherDisplay:10.37,2013-01-14 21:58:00,
2013-01-14 16:00:00,15.5,11.0,30.33,SE,135,0.0,0.0,82,0.00,CLR,,0.00,WeatherDisplay:10.37,2013-01-14 22:00:00,
2013-01-14 16:03:00,30.0,9.6,30.35,NNW,344,3.5,3.5,42,0.00,CLR,,0.00,WeatherDisplay:10.37,2013-01-14 22:03:00,
2013-01-14 16:05:00,15.6,11.1,30.33,SE,135,0.0,0.0,82,0.00,CLR,,0.00,WeatherDisplay:10.37,2013-01-14 22:05:00,
2013-01-14 16:08:00,29.8,9.5,30.35,NNW,344,0.0,0.0,42,0.00,CLR,,0.00,WeatherDisplay:10.37,2013-01-14 22:08:00,
2013-01-14 16:10:00,15.5,11.0,30.32,SE,135,0.0,0.0,82,0.00,CLR,,0.00,WeatherDisplay:10.37,2013-01-14 22:10:00,
2013-01-14 16:13:00,29.9,10.1,30.35,NNW,344,2.0,2.0,43,0.00,CLR,,0.00,WeatherDisplay:10.37,2013-01-14 22:13:00,
2013-01-14 16:15:00,15.5,11.0,30.32,SE,135,0.0,0.0,82,0.00,CLR,,0.00,WeatherDisplay:10.37,2013-01-14 22:15:00,
2013-01-14 16:18:00,29.8,9.5,30.36,NNW,344,1.2,0.0,42,0.00,CLR,,0.00,WeatherDisplay:10.37,2013-01-14 22:18:00,
2013-01-14 16:20:00,15.5,11.0,30.33,SE,135,0.0,0.0,82,0.00,CLR,,0.00,WeatherDisplay:10.37,2013-01-14 22:20:00,
2013-01-14 16:23:00,29.7,9.4,30.36,NNW,344,1.2,1.2,42,0.00,CLR,,0.00,WeatherDisplay:10.37,2013-01-14 22:23:00,
2013-01-14 16:25:00,15.6,11.1,30.33,SE,135,0.0,0.0,82,0.00,CLR,,0.00,WeatherDisplay:10.37,2013-01-14 22:25:00,
2013-01-14 16:28:00,29.7,9.9,30.35,NNW,344,1.2,1.2,43,0.00,CLR,,0.00,WeatherDisplay:10.37,2013-01-14 22:28:00,
2013-01-14 16:30:00,15.6,11.4,30.33,SE,135,0.0,0.0,83,0.00,CLR,,0.00,WeatherDisplay:10.37,2013-01-14 22:30:00,
2013-01-14 16:33:00,29.7,9.9,30.35,NNW,344,1.2,1.2,43,0.00,CLR,,0.00,WeatherDisplay:10.37,2013-01-14 22:33:00,
2013-01-14 16:35:00,15.6,11.4,30.33,SE,135,0.0,1.0,83,0.00,CLR,,0.00,WeatherDisplay:10.37,2013-01-14 22:35:00,
2013-01-14 16:38:00,29.6,9.8,30.35,NNW,344,1.2,1.2,43,0.00,CLR,,0.00,WeatherDisplay:10.37,2013-01-14 22:38:00,
2013-01-14 16:40:00,15.7,11.5,30.33,SE,135,0.0,0.0,83,0.00,CLR,,0.00,WeatherDisplay:10.37,2013-01-14 22:40:00,
2013-01-14 16:43:00,29.6,10.3,30.35,NNW,344,1.2,1.2,44,0.00,CLR,,0.00,WeatherDisplay:10.37,2013-01-14 22:43:00,
2013-01-14 16:45:00,15.7,11.5,30.34,SE,135,0.0,0.0,83,0.00,CLR,,0.00,WeatherDisplay:10.37,2013-01-14 22:45:00,
2013-01-14 16:48:00,29.4,10.1,30.35,NNW,344,1.0,0.0,44,0.00,CLR,,0.00,WeatherDisplay:10.37,2013-01-14 22:48:00,
2013-01-14 16:50:00,15.7,11.5,30.33,SE,135,0.0,0.0,83,0.00,CLR,,0.00,WeatherDisplay:10.37,2013-01-14 22:50:00,
2013-01-14 16:53:00,29.2,10.5,30.35,NNW,344,0.0,0.0,45,0.00,CLR,,0.00,WeatherDisplay:10.37,2013-01-14 22:53:00,
2013-01-14 16:55:00,15.7,11.5,30.33,SE,135,0.0,0.0,83,0.00,CLR,,0.00,WeatherDisplay:10.37,2013-01-14 22:55:00,
2013-01-14 16:58:00,29.0,9.8,30.35,NNW,344,1.2,1.2,44,0.00,CLR,,0.00,WeatherDisplay:10.37,2013-01-14 22:58:00,
2013-01-14 17:00:00,15.9,11.7,30.33,SE,135,0.0,0.0,83,0.00,CLR,,0.00,WeatherDisplay:10.37,2013-01-14 23:00:00,
2013-01-14 17:03:00,28.9,9.7,30.35,NNW,344,0.0,0.0,44,0.00,CLR,,0.00,WeatherDisplay:10.37,2013-01-14 23:03:00,
2013-01-14 17:05:00,16.0,11.7,30.33,SE,135,0.0,0.0,83,0.00,CLR,,0.00,WeatherDisplay:10.37,2013-01-14 23:05:00,
2013-01-14 17:08:00,28.7,9.5,30.35,NNW,344,3.5,3.5,44,0.00,CLR,,0.00,WeatherDisplay:10.37,2013-01-14 23:08:00,
2013-01-14 17:10:00,16.0,11.7,30.33,SE,135,0.0,0.0,83,0.00,CLR,,0.00,WeatherDisplay:10.37,2013-01-14 23:10:00,
2013-01-14 17:13:00,28.6,9.4,30.35,NNW,344,3.5,3.5,44,0.00,CLR,,0.00,WeatherDisplay:10.37,2013-01-14 23:13:00,
2013-01-14 17:15:00,16.2,11.9,30.33,SE,135,0.0,0.0,83,0.00,CLR,,0.00,WeatherDisplay:10.37,2013-01-14 23:15:00,
2013-01-14 17:18:00,28.4,11.6,30.35,ENE,65,9.2,9.2,49,0.00,CLR,,0.00,WeatherDisplay:10.37,2013-01-14 23:18:00,
2013-01-14 17:20:00,16.4,12.1,30.33,SE,135,0.0,0.0,83,0.00,CLR,,0.00,WeatherDisplay:10.37,2013-01-14 23:20:00,
2013-01-14 17:23:00,28.0,12.6,30.35,ENE,66,3.5,3.5,52,0.00,CLR,,0.00,WeatherDisplay:10.37,2013-01-14 23:23:00,
2013-01-14 17:25:00,16.7,12.7,30.33,SE,135,0.0,0.0,84,0.00,CLR,,0.00,WeatherDisplay:10.37,2013-01-14 23:25:00,
2013-01-14 17:28:00,27.5,12.6,30.35,SE,127,9.2,9.2,53,0.00,CLR,,0.00,WeatherDisplay:10.37,2013-01-14 23:28:00,
2013-01-14 17:30:00,16.9,12.9,30.32,SE,135,0.0,0.0,84,0.00,CLR,,0.00,WeatherDisplay:10.37,2013-01-14 23:30:00,
2013-01-14 17:33:00,27.2,12.3,30.35,SE,128,6.9,6.9,53,0.00,CLR,,0.00,WeatherDisplay:10.37,2013-01-14 23:33:00,
2013-01-14 17:35:00,17.3,13.3,30.32,SE,135,0.0,0.0,84,0.00,CLR,,0.00,WeatherDisplay:10.37,2013-01-14 23:35:00,
2013-01-14 17:38:00,26.9,12.5,30.35,SE,128,3.5,3.5,54,0.00,CLR,,0.00,WeatherDisplay:10.37,2013-01-14 23:38:00,
2013-01-14 17:40:00,18.2,14.2,30.32,SE,135,0.0,0.0,84,0.00,CLR,,0.00,WeatherDisplay:10.37,2013-01-14 23:40:00,
2013-01-14 17:43:00,26.7,12.3,30.36,SE,128,2.3,2.3,54,0.00,CLR,,0.00,WeatherDisplay:10.37,2013-01-14 23:43:00,
2013-01-14 17:45:00,19.7,15.6,30.32,SE,135,1.0,2.0,84,0.00,CLR,,0.00,WeatherDisplay:10.37,2013-01-14 23:45:00,
2013-01-14 17:48:00,26.5,12.5,30.35,SE,131,9.2,9.2,55,0.00,CLR,,0.00,WeatherDisplay:10.37,2013-01-14 23:48:00,
2013-01-14 17:50:00,20.5,15.6,30.32,SE,135,0.0,2.0,81,0.00,CLR,,0.00,WeatherDisplay:10.37,2013-01-14 23:50:00,
2013-01-14 17:54:00,26.3,12.3,30.35,SE,130,3.5,3.5,55,0.00,CLR,,0.00,WeatherDisplay:10.37,2013-01-14 23:54:00,
2013-01-14 17:55:00,21.2,15.4,30.31,SE,135,1.0,3.0,78,0.00,CLR,,0.00,WeatherDisplay:10.37,2013-01-14 23:55:00,
2013-01-14 17:59:00,26.1,12.5,30.36,SE,132,3.5,3.5,56,0.00,CLR,,0.00,WeatherDisplay:10.37,2013-01-14 23:59:00,
2013-01-14 18:00:00,21.7,15.0,30.31,SE,135,0.0,2.0,75,0.00,CLR,,0.00,WeatherDisplay:10.37,2013-01-15 00:00:00,
2013-01-14 18:04:00,25.8,12.2,30.36,SE,132,3.5,3.5,56,0.00,CLR,,0.00,WeatherDisplay:10.37,2013-01-15 00:04:00,
2013-01-14 18:05:00,22.7,15.3,30.31,SE,135,0.0,1.0,73,0.00,CLR,,0.00,WeatherDisplay:10.37,2013-01-15 00:05:00,
2013-01-14 18:09:00,25.6,12.1,30.36,SE,133,5.8,5.8,56,0.00,CLR,,0.00,WeatherDisplay:10.37,2013-01-15 00:09:00,
2013-01-14 18:10:00,23.4,15.1,30.31,SE,135,0.0,0.0,70,0.00,CLR,,0.00,WeatherDisplay:10.37,2013-01-15 00:10:00,
2013-01-14 18:14:00,25.5,12.4,30.36,SE,133,3.5,3.5,57,0.00,CLR,,0.00,WeatherDisplay:10.37,2013-01-15 00:14:00,
2013-01-14 18:15:00,23.8,14.4,30.30,SE,135,0.0,2.0,67,0.00,CLR,,0.00,WeatherDisplay:10.37,2013-01-15 00:15:00,
2013-01-14 18:19:00,25.3,12.2,30.37,SE,133,4.6,4.6,57,0.00,CLR,,0.00,WeatherDisplay:10.37,2013-01-15 00:19:00,
2013-01-14 18:20:00,23.7,13.3,30.30,SE,135,0.0,2.0,64,0.00,CLR,,0.00,WeatherDisplay:10.37,2013-01-15 00:20:00,
2013-01-14 18:24:00,25.2,12.1,30.37,SE,133,8.1,8.1,57,0.00,CLR,,0.00,WeatherDisplay:10.37,2013-01-15 00:24:00,
2013-01-14 18:25:00,23.9,13.5,30.30,SE,135,0.0,1.0,64,0.00,CLR,,0.00,WeatherDisplay:10.37,2013-01-15 00:25:00,
2013-01-14 18:29:00,25.1,12.0,30.37,SE,133,1.2,1.2,57,0.00,CLR,,0.00,WeatherDisplay:10.37,2013-01-15 00:29:00,
2013-01-14 18:30:00,23.9,13.1,30.30,SE,135,0.0,2.0,63,0.00,CLR,,0.00,WeatherDisplay:10.37,2013-01-15 00:30:00,
2013-01-14 18:34:00,25.0,11.9,30.37,SE,133,3.5,3.5,57,0.00,CLR,,0.00,WeatherDisplay:10.37,2013-01-15 00:34:00,
2013-01-14 18:35:00,24.2,13.0,30.31,SE,135,1.0,3.0,62,0.00,CLR,,0.00,WeatherDisplay:10.37,2013-01-15 00:35:00,
2013-01-14 18:39:00,25.0,12.3,30.37,SE,133,1.2,1.2,58,0.00,CLR,,0.00,WeatherDisplay:10.37,2013-01-15 00:39:00,
2013-01-14 18:40:00,24.1,12.9,30.30,SE,135,0.0,2.0,62,0.00,CLR,,0.00,WeatherDisplay:10.37,2013-01-15 00:40:00,
2013-01-14 18:44:00,24.9,11.8,30.37,SE,133,4.6,4.6,57,0.00,CLR,,0.00,WeatherDisplay:10.37,2013-01-15 00:44:00,
2013-01-14 18:45:00,24.3,12.8,30.31,SE,135,1.0,3.0,61,0.00,CLR,,0.00,WeatherDisplay:10.37,2013-01-15 00:45:00,
2013-01-14 18:49:00,24.9,11.8,30.37,SE,133,3.5,3.5,57,0.00,CLR,,0.00,WeatherDisplay:10.37,2013-01-15 00:49:00,
2013-01-14 18:50:00,24.8,13.2,30.31,SE,135,0.0,2.0,61,0.00,CLR,,0.00,WeatherDisplay:10.37,2013-01-15 00:50:00,
2013-01-14 18:54:00,24.8,12.1,30.37,SE,133,0.0,0.0,58,0.00,CLR,,0.00,WeatherDisplay:10.37,2013-01-15 00:54:00,
2013-01-14 18:55:00,24.9,13.0,30.31,SE,135,0.0,3.0,60,0.00,CLR,,0.00,WeatherDisplay:10.37,2013-01-15 00:55:00,
2013-01-14 18:59:00,24.8,12.1,30.37,SE,133,3.0,3.0,58,0.00,CLR,,0.00,WeatherDisplay:10.37,2013-01-15 00:59:00,
2013-01-14 19:00:00,24.8,12.9,30.31,SE,135,0.0,3.0,60,0.00,CLR,,0.00,WeatherDisplay:10.37,2013-01-15 01:00:00,
2013-01-14 19:04:00,24.9,12.2,30.37,SE,133,3.5,3.5,58,0.00,CLR,,0.00,WeatherDisplay:10.37,2013-01-15 01:04:00,
2013-01-14 19:05:00,24.8,12.9,30.32,SE,135,1.0,2.0,60,0.00,CLR,,0.00,WeatherDisplay:10.37,2013-01-15 01:05:00,
2013-01-14 19:09:00,24.8,12.1,30.37,SE,133,2.3,2.3,58,0.00,CLR,,0.00,WeatherDisplay:10.37,2013-01-15 01:09:00,
2013-01-14 19:10:00,24.4,12.5,30.32,SE,135,1.0,6.0,60,0.00,CLR,,0.00,WeatherDisplay:10.37,2013-01-15 01:10:00,
2013-01-14 19:14:00,24.6,11.9,30.38,SE,133,4.6,4.6,58,0.00,CLR,,0.00,WeatherDisplay:10.37,2013-01-15 01:14:00,
2013-01-14 19:15:00,24.4,12.5,30.32,SE,135,1.0,4.0,60,0.00,CLR,,0.00,WeatherDisplay:10.37,2013-01-15 01:15:00,
2013-01-14 19:19:00,24.5,11.8,30.37,SE,134,3.5,3.5,58,0.00,CLR,,0.00,WeatherDisplay:10.37,2013-01-15 01:19:00,
2013-01-14 19:20:00,24.6,12.7,30.32,SE,135,0.0,2.0,60,0.00,CLR,,0.00,WeatherDisplay:10.37,2013-01-15 01:20:00,
2013-01-14 19:24:00,24.3,11.6,30.38,SE,134,1.2,1.2,58,0.00,CLR,,0.00,WeatherDisplay:10.37,2013-01-15 01:24:00,
2013-01-14 19:25:00,25.1,12.8,30.32,SE,135,0.0,3.0,59,0.00,CLR,,0.00,WeatherDisplay:10.37,2013-01-15 01:25:00,
2013-01-14 19:29:00,24.2,11.5,30.38,SE,133,2.3,2.3,58,0.00,CLR,,0.00,WeatherDisplay:10.37,2013-01-15 01:29:00,
2013-01-14 19:30:00,25.2,12.5,30.33,SE,135,2.0,3.0,58,0.00,CLR,,0.00,WeatherDisplay:10.37,2013-01-15 01:30:00,
2013-01-14 19:34:00,24.1,11.4,30.38,SE,134,3.5,3.5,58,0.00,CLR,,0.00,WeatherDisplay:10.37,2013-01-15 01:34:00,
2013-01-14 19:35:00,25.1,12.8,30.32,SE,135,2.0,4.0,59,0.00,CLR,,0.00,WeatherDisplay:10.37,2013-01-15 01:35:00,
2013-01-14 19:39:00,24.0,11.3,30.38,SE,134,0.0,0.0,58,0.00,CLR,,0.00,WeatherDisplay:10.37,2013-01-15 01:39:00,
2013-01-14 19:40:00,25.0,12.7,30.32,SE,135,0.0,5.0,59,0.00,CLR,,0.00,WeatherDisplay:10.37,2013-01-15 01:40:00,
2013-01-14 19:44:00,23.9,11.3,30.38,SE,133,0.0,0.0,58,0.00,CLR,,0.00,WeatherDisplay:10.37,2013-01-15 01:44:00,
2013-01-14 19:45:00,25.4,13.4,30.32,SE,135,0.0,1.0,60,0.00,CLR,,0.00,WeatherDisplay:10.37,2013-01-15 01:45:00,
2013-01-14 19:49:00,23.8,11.2,30.38,SE,133,0.0,0.0,58,0.00,CLR,,0.00,WeatherDisplay:10.37,2013-01-15 01:49:00,
2013-01-14 19:50:00,25.8,13.0,30.32,SE,135,2.0,4.0,58,0.00,CLR,,0.00,WeatherDisplay:10.37,2013-01-15 01:50:00,
2013-01-14 19:54:00,23.7,11.4,30.38,SE,133,0.0,0.0,59,0.00,CLR,,0.00,WeatherDisplay:10.37,2013-01-15 01:54:00,
2013-01-14 19:55:00,25.7,12.9,30.32,SE,135,0.0,3.0,58,0.00,CLR,,0.00,WeatherDisplay:10.37,2013-01-15 01:55:00,
2013-01-14 19:59:00,23.6,11.4,30.38,SE,133,1.2,1.2,59,0.00,CLR,,0.00,WeatherDisplay:10.37,2013-01-15 01:59:00,
2013-01-14 20:00:00,26.0,13.2,30.32,SE,135,0.0,3.0,58,0.00,CLR,,0.00,WeatherDisplay:10.37,2013-01-15 02:00:00,
2013-01-14 20:04:00,23.5,11.3,30.37,SE,133,1.2,1.2,59,0.00,CLR,,0.00,WeatherDisplay:10.37,2013-01-15 02:04:00,
2013-01-14 20:05:00,26.3,13.1,30.32,SE,135,3.0,4.0,57,0.00,CLR,,0.00,WeatherDisplay:10.37,2013-01-15 02:05:00,
2013-01-14 20:09:00,23.5,11.6,30.37,SE,134,1.2,0.0,60,0.00,CLR,,0.00,WeatherDisplay:10.37,2013-01-15 02:09:00,
2013-01-14 20:10:00,26.2,13.0,30.32,SE,135,1.0,4.0,57,0.00,CLR,,0.00,WeatherDisplay:10.37,2013-01-15 02:10:00,
2013-01-14 20:14:00,23.5,11.6,30.37,SE,134,0.0,0.0,60,0.00,CLR,,0.00,WeatherDisplay:10.37,2013-01-15 02:14:00,
2013-01-14 20:15:00,26.7,13.5,30.31,SE,135,2.0,3.0,57,0.00,CLR,,0.00,WeatherDisplay:10.37,2013-01-15 02:15:00,
2013-01-14 20:19:00,23.5,11.6,30.37,SE,133,0.0,0.0,60,0.00,CLR,,0.00,WeatherDisplay:10.37,2013-01-15 02:19:00,
2013-01-14 20:20:00,26.9,13.7,30.31,SE,135,0.0,6.0,57,0.00,CLR,,0.00,WeatherDisplay:10.37,2013-01-15 02:20:00,
2013-01-14 20:24:00,23.4,11.5,30.38,SE,133,0.0,0.0,60,0.00,CLR,,0.00,WeatherDisplay:10.37,2013-01-15 02:24:00,
2013-01-14 20:25:00,27.6,13.9,30.31,SE,135,1.0,2.0,56,0.00,CLR,,0.00,WeatherDisplay:10.37,2013-01-15 02:25:00,
2013-01-14 20:29:00,23.3,11.8,30.38,SE,134,1.2,1.2,61,0.00,CLR,,0.00,WeatherDisplay:10.37,2013-01-15 02:29:00,
2013-01-14 20:30:00,28.1,14.0,30.30,SE,135,2.0,3.0,55,0.00,CLR,,0.00,WeatherDisplay:10.37,2013-01-15 02:30:00,
2013-01-14 20:34:00,23.3,11.8,30.38,SE,134,0.0,0.0,61,0.00,CLR,,0.00,WeatherDisplay:10.37,2013-01-15 02:34:00,
2013-01-14 20:35:00,28.3,13.3,30.30,SE,135,3.0,4.0,53,0.00,CLR,,0.00,WeatherDisplay:10.37,2013-01-15 02:35:00,
2013-01-14 20:39:00,23.2,11.7,30.38,SE,133,0.0,0.0,61,0.00,CLR,,0.00,WeatherDisplay:10.37,2013-01-15 02:39:00,
2013-01-14 20:40:00,28.2,13.2,30.30,SE,135,2.0,5.0,53,0.00,CLR,,0.00,WeatherDisplay:10.37,2013-01-15 02:40:00,
2013-01-14 20:44:00,23.2,11.7,30.37,SE,134,0.0,0.0,61,0.00,CLR,,0.00,WeatherDisplay:10.37,2013-01-15 02:44:00,
2013-01-14 20:45:00,28.7,13.7,30.29,SE,135,1.0,2.0,53,0.00,CLR,,0.00,WeatherDisplay:10.37,2013-01-15 02:45:00,
2013-01-14 20:49:00,23.2,11.7,30.37,SE,134,2.3,2.3,61,0.00,CLR,,0.00,WeatherDisplay:10.37,2013-01-15 02:49:00,
2013-01-14 20:50:00,29.1,14.1,30.29,SE,135,1.0,2.0,53,0.00,CLR,,0.00,WeatherDisplay:10.37,2013-01-15 02:50:00,
2013-01-14 20:54:00,23.1,11.6,30.36,SE,134,0.0,0.0,61,0.00,CLR,,0.00,WeatherDisplay:10.37,2013-01-15 02:54:00,
2013-01-14 20:55:00,29.1,13.2,30.29,SE,135,0.0,5.0,51,0.00,CLR,,0.00,WeatherDisplay:10.37,2013-01-15 02:55:00,
2013-01-14 20:59:00,23.1,11.6,30.36,SE,134,0.0,0.0,61,0.00,CLR,,0.00,WeatherDisplay:10.37,2013-01-15 02:59:00,
2013-01-14 21:00:00,28.9,12.6,30.28,SE,135,1.0,6.0,50,0.00,CLR,,0.00,WeatherDisplay:10.37,2013-01-15 03:00:00,
2013-01-14 21:04:00,23.0,11.5,30.36,SE,133,1.2,0.0,61,0.00,CLR,,0.00,WeatherDisplay:10.37,2013-01-15 03:04:00,
2013-01-14 21:05:00,28.9,12.6,30.28,SE,135,0.0,7.0,50,0.00,CLR,,0.00,WeatherDisplay:10.37,2013-01-15 03:05:00,
2013-01-14 21:09:00,22.9,11.4,30.36,SE,134,0.0,0.0,61,0.00,CLR,,0.00,WeatherDisplay:10.37,2013-01-15 03:09:00,
2013-01-14 21:10:00,28.8,12.9,30.28,SE,135,1.0,4.0,51,0.00,CLR,,0.00,WeatherDisplay:10.37,2013-01-15 03:10:00,
2013-01-14 21:14:00,22.9,11.4,30.36,SE,134,0.0,0.0,61,0.00,CLR,,0.00,WeatherDisplay:10.37,2013-01-15 03:14:00,
2013-01-14 21:15:00,29.0,12.2,30.28,SE,135,3.0,9.0,49,0.00,CLR,,0.00,WeatherDisplay:10.37,2013-01-15 03:15:00,
2013-01-14 21:19:00,22.8,11.7,30.36,SE,134,0.0,0.0,62,0.00,CLR,,0.00,WeatherDisplay:10.37,2013-01-15 03:19:00,
2013-01-14 21:20:00,28.8,12.5,30.27,SE,135,1.0,4.0,50,0.00,CLR,,0.00,WeatherDisplay:10.37,2013-01-15 03:20:00,
2013-01-14 21:24:00,22.7,11.6,30.36,SE,134,0.0,0.0,62,0.00,CLR,,0.00,WeatherDisplay:10.37,2013-01-15 03:24:00,
2013-01-14 21:25:00,28.8,12.0,30.27,SE,135,0.0,8.0,49,0.00,CLR,,0.00,WeatherDisplay:10.37,2013-01-15 03:25:00,
2013-01-14 21:29:00,22.5,11.4,30.36,SE,134,0.0,0.0,62,0.00,CLR,,0.00,WeatherDisplay:10.37,2013-01-15 03:29:00,
2013-01-14 21:30:00,29.4,12.1,30.27,SE,135,3.0,7.0,48,0.00,CLR,,0.00,WeatherDisplay:10.37,2013-01-15 03:30:00,
2013-01-14 21:34:00,22.4,11.3,30.36,SE,133,0.0,0.0,62,0.00,CLR,,0.00,WeatherDisplay:10.37,2013-01-15 03:34:00,
2013-01-14 21:35:00,29.2,11.4,30.26,SE,135,3.0,6.0,47,0.00,CLR,,0.00,WeatherDisplay:10.37,2013-01-15 03:35:00,
2013-01-14 21:39:00,22.2,11.5,30.36,SE,134,0.0,0.0,63,0.00,CLR,,0.00,WeatherDisplay:10.37,2013-01-15 03:39:00,
2013-01-14 21:40:00,29.3,12.0,30.26,SE,135,1.0,6.0,48,0.00,CLR,,0.00,WeatherDisplay:10.37,2013-01-15 03:40:00,
2013-01-14 21:44:00,22.1,11.8,30.36,SE,134,0.0,0.0,64,0.00,CLR,,0.00,WeatherDisplay:10.37,2013-01-15 03:44:00,
2013-01-14 21:45:00,29.3,11.5,30.25,SE,135,3.0,6.0,47,0.00,CLR,,0.00,WeatherDisplay:10.37,2013-01-15 03:45:00,
2013-01-14 21:49:00,21.9,11.9,30.36,SE,134,0.0,0.0,65,0.00,CLR,,0.00,WeatherDisplay:10.37,2013-01-15 03:49:00,
2013-01-14 21:50:00,29.1,11.8,30.25,SE,143,3.0,7.0,48,0.00,CLR,,0.00,WeatherDisplay:10.37,2013-01-15 03:50:00,
2013-01-14 21:54:00,21.9,11.9,30.36,SE,133,0.0,0.0,65,0.00,CLR,,0.00,WeatherDisplay:10.37,2013-01-15 03:54:00,
2013-01-14 21:55:00,29.3,11.5,30.25,SSE,154,0.0,5.0,47,0.00,CLR,,0.00,WeatherDisplay:10.37,2013-01-15 03:55:00,
2013-01-14 21:59:00,22.0,12.0,30.36,SE,134,0.0,0.0,65,0.00,CLR,,0.00,WeatherDisplay:10.37,2013-01-15 03:59:00,
2013-01-14 22:00:00,30.2,11.9,30.24,SSE,158,2.0,4.0,46,0.00,CLR,,0.00,WeatherDisplay:10.37,2013-01-15 04:00:00,
2013-01-14 22:04:00,21.9,11.9,30.36,SE,134,0.0,0.0,65,0.00,CLR,,0.00,WeatherDisplay:10.37,2013-01-15 04:04:00,
2013-01-14 22:05:00,30.1,11.3,30.24,SSE,158,2.0,5.0,45,0.00,CLR,,0.00,WeatherDisplay:10.37,2013-01-15 04:05:00,
2013-01-14 22:09:00,21.6,11.6,30.36,SE,133,0.0,0.0,65,0.00,CLR,,0.00,WeatherDisplay:10.37,2013-01-15 04:09:00,
2013-01-14 22:10:00,30.5,10.6,30.24,SSE,158,3.0,7.0,43,0.00,CLR,,0.00,WeatherDisplay:10.37,2013-01-15 04:10:00,
2013-01-14 22:14:00,21.3,11.4,30.36,SE,134,0.0,0.0,65,0.00,CLR,,0.00,WeatherDisplay:10.37,2013-01-15 04:14:00,
2013-01-14 22:15:00,30.1,10.3,30.24,SSE,158,1.0,7.0,43,0.00,CLR,,0.00,WeatherDisplay:10.37,2013-01-15 04:15:00,
2013-01-14 22:19:00,21.0,11.4,30.36,SE,133,0.0,0.0,66,0.00,CLR,,0.00,WeatherDisplay:10.37,2013-01-15 04:19:00,
2013-01-14 22:20:00,29.6,9.8,30.23,SSE,158,2.0,5.0,43,0.00,CLR,,0.00,WeatherDisplay:10.37,2013-01-15 04:20:00,
2013-01-14 22:24:00,21.1,11.5,30.35,SE,134,0.0,0.0,66,0.00,CLR,,0.00,WeatherDisplay:10.37,2013-01-15 04:24:00,
2013-01-14 22:25:00,29.7,9.4,30.23,SSE,158,3.0,6.0,42,0.00,CLR,,0.00,WeatherDisplay:10.37,2013-01-15 04:25:00,
2013-01-14 22:29:00,21.0,11.4,30.35,SE,134,0.0,0.0,66,0.00,CLR,,0.00,WeatherDisplay:10.37,2013-01-15 04:29:00,
2013-01-14 22:30:00,29.6,9.3,30.23,SSE,158,1.0,5.0,42,0.00,CLR,,0.00,WeatherDisplay:10.37,2013-01-15 04:30:00,
2013-01-14 22:34:00,20.7,11.5,30.36,SE,134,0.0,0.0,67,0.00,CLR,,0.00,WeatherDisplay:10.37,2013-01-15 04:34:00,
2013-01-14 22:35:00,29.9,10.1,30.23,SSE,158,0.0,5.0,43,0.00,CLR,,0.00,WeatherDisplay:10.37,2013-01-15 04:35:00,
2013-01-14 22:39:00,20.3,11.4,30.36,SE,134,0.0,0.0,68,0.00,CLR,,0.00,WeatherDisplay:10.37,2013-01-15 04:39:00,
2013-01-14 22:40:00,30.5,10.1,30.22,SSE,158,3.0,7.0,42,0.00,CLR,,0.00,WeatherDisplay:10.37,2013-01-15 04:40:00,
2013-01-14 22:44:00,20.1,11.6,30.35,SE,133,0.0,0.0,69,0.00,CLR,,0.00,WeatherDisplay:10.37,2013-01-15 04:44:00,
2013-01-14 22:45:00,30.3,9.9,30.22,SSE,158,2.0,6.0,42,0.00,CLR,,0.00,WeatherDisplay:10.37,2013-01-15 04:45:00,
2013-01-14 22:49:00,19.9,11.4,30.35,SE,133,0.0,0.0,69,0.00,CLR,,0.00,WeatherDisplay:10.37,2013-01-15 04:49:00,
2013-01-14 22:50:00,30.2,9.8,30.22,SSE,158,1.0,4.0,42,0.00,CLR,,0.00,WeatherDisplay:10.37,2013-01-15 04:50:00,
2013-01-14 22:54:00,19.7,11.5,30.34,SE,133,0.0,0.0,70,0.00,CLR,,0.00,WeatherDisplay:10.37,2013-01-15 04:54:00,
2013-01-14 22:55:00,31.1,10.6,30.22,SSE,158,0.0,1.0,42,0.00,CLR,,0.00,WeatherDisplay:10.37,2013-01-15 04:55:00,
2013-01-14 22:59:00,19.7,11.5,30.35,SE,134,0.0,0.0,70,0.00,CLR,,0.00,WeatherDisplay:10.37,2013-01-15 04:59:00,
2013-01-14 23:00:00,19.7,11.5,30.35,SE,134,0.0,0.0,70,0.00,CLR,,0.00,WeatherDisplay:10.37,2013-01-15 05:00:00,
2013-01-14 23:01:00,19.7,11.5,30.35,SE,134,0.0,0.0,70,0.00,CLR,,0.00,WeatherDisplay:10.37,2013-01-15 05:01:00,
2013-01-14 23:05:00,32.7,11.0,30.21,SSE,158,2.0,5.0,40,0.00,CLR,,0.00,WeatherDisplay:10.37,2013-01-15 05:05:00,
2013-01-14 23:06:00,19.7,11.8,30.35,SE,134,0.0,0.0,71,0.00,CLR,,0.00,WeatherDisplay:10.37,2013-01-15 05:06:00,
2013-01-14 23:10:00,32.2,10.5,30.20,SSE,158,3.0,5.0,40,0.00,CLR,,0.00,WeatherDisplay:10.37,2013-01-15 05:10:00,
2013-01-14 23:11:00,19.7,11.8,30.35,SE,133,0.0,0.0,71,0.00,CLR,,0.00,WeatherDisplay:10.37,2013-01-15 05:11:00,
2013-01-14 23:15:00,31.6,10.6,30.21,SSE,158,0.0,5.0,41,0.00,CLR,,0.00,WeatherDisplay:10.37,2013-01-15 05:15:00,
2013-01-14 23:16:00,19.6,11.7,30.35,SE,134,0.0,0.0,71,0.00,CLR,,0.00,WeatherDisplay:10.37,2013-01-15 05:16:00,
2013-01-14 23:20:00,32.3,11.2,30.21,SSE,158,1.0,2.0,41,0.00,CLR,,0.00,WeatherDisplay:10.37,2013-01-15 05:20:00,
2013-01-14 23:21:00,19.5,11.6,30.35,SE,134,0.0,0.0,71,0.00,CLR,,0.00,WeatherDisplay:10.37,2013-01-15 05:21:00,
2013-01-14 23:25:00,33.2,12.0,30.21,SSE,158,1.0,3.0,41,0.00,CLR,,0.00,WeatherDisplay:10.37,2013-01-15 05:25:00,
2013-01-14 23:26:00,19.5,11.6,30.35,SE,133,0.0,0.0,71,0.00,CLR,,0.00,WeatherDisplay:10.37,2013-01-15 05:26:00,
2013-01-14 23:30:00,33.2,10.9,30.21,SSE,158,1.0,3.0,39,0.00,CLR,,0.00,WeatherDisplay:10.37,2013-01-15 05:30:00,
2013-01-14 23:31:00,19.3,11.4,30.36,SE,134,0.0,0.0,71,0.00,CLR,,0.00,WeatherDisplay:10.37,2013-01-15 05:31:00,
2013-01-14 23:35:00,32.8,11.1,30.20,SSE,158,0.0,2.0,40,0.00,CLR,,0.00,WeatherDisplay:10.37,2013-01-15 05:35:00,
2013-01-14 23:36:00,19.2,11.3,30.36,SE,134,0.0,0.0,71,0.00,CLR,,0.00,WeatherDisplay:10.37,2013-01-15 05:36:00,
2013-01-14 23:40:00,32.7,10.4,30.20,SSE,158,1.0,3.0,39,0.00,CLR,,0.00,WeatherDisplay:10.37,2013-01-15 05:40:00,
2013-01-14 23:41:00,19.2,11.3,30.36,SE,134,0.0,0.0,71,0.00,CLR,,0.00,WeatherDisplay:10.37,2013-01-15 05:41:00,
2013-01-14 23:45:00,32.5,10.8,30.20,SSE,158,1.0,2.0,40,0.00,CLR,,0.00,WeatherDisplay:10.37,2013-01-15 05:45:00,
2013-01-14 23:46:00,19.0,11.1,30.35,SE,133,0.0,0.0,71,0.00,CLR,,0.00,WeatherDisplay:10.37,2013-01-15 05:46:00,
2013-01-14 23:50:00,32.6,11.5,30.20,SSE,158,1.0,4.0,41,0.00,CLR,,0.00,WeatherDisplay:10.37,2013-01-15 05:50:00,
2013-01-14 23:51:00,18.7,11.2,30.35,SE,134,0.0,0.0,72,0.00,CLR,,0.00,WeatherDisplay:10.37,2013-01-15 05:51:00,
2013-01-14 23:55:00,32.7,11.0,30.20,SSE,158,1.0,4.0,40,0.00,CLR,,0.00,WeatherDisplay:10.37,2013-01-15 05:55:00,
2013-01-14 23:56:00,18.6,11.4,30.35,SE,134,0.0,0.0,73,0.00,CLR,,0.00,WeatherDisplay:10.37,2013-01-15 05:56:00,